sensor_id;sensor_type;location;lat;lon;timestamp;pressure;altitude;pressure_sealevel;temperature;humidity
47738;BME280;33502;47.182;27.506;2023-06-10T00:01:48;99743.78;;;14.93;100.00
47738;BME280;33502;47.182;27.506;2023-06-10T00:04:16;99734.63;;;14.97;100.00
47738;BME280;33502;47.182;27.506;2023-06-10T00:06:45;99730.56;;;15.04;100.00
47738;BME280;33502;47.182;27.506;2023-06-10T00:09:13;99725.44;;;15.14;100.00
47738;BME280;33502;47.182;27.506;2023-06-10T00:11:40;99732.13;;;15.20;100.00
47738;BME280;33502;47.182;27.506;2023-06-10T00:14:06;99729.03;;;15.26;100.00
47738;BME280;33502;47.182;27.506;2023-06-10T00:16:32;99726.91;;;15.31;100.00
47738;BME280;33502;47.182;27.506;2023-06-10T00:18:59;99738.75;;;15.27;100.00
47738;BME280;33502;47.182;27.506;2023-06-10T00:21:27;99740.25;;;15.18;100.00
47738;BME280;33502;47.182;27.506;2023-06-10T00:23:53;99739.72;;;15.13;100.00
47738;BME280;33502;47.182;27.506;2023-06-10T00:26:21;99733.09;;;15.19;100.00
47738;BME280;33502;47.182;27.506;2023-06-10T00:28:47;99741.63;;;15.24;100.00
47738;BME280;33502;47.182;27.506;2023-06-10T00:31:13;99737.25;;;15.23;100.00
47738;BME280;33502;47.182;27.506;2023-06-10T00:33:38;99734.59;;;15.23;100.00
47738;BME280;33502;47.182;27.506;2023-06-10T00:36:04;99730.50;;;15.30;100.00
47738;BME280;33502;47.182;27.506;2023-06-10T00:38:30;99732.22;;;15.31;100.00
47738;BME280;33502;47.182;27.506;2023-06-10T00:40:55;99736.72;;;15.31;100.00
47738;BME280;33502;47.182;27.506;2023-06-10T00:43:21;99737.66;;;15.30;100.00
47738;BME280;33502;47.182;27.506;2023-06-10T00:45:46;99728.19;;;15.25;100.00
47738;BME280;33502;47.182;27.506;2023-06-10T00:48:12;99725.63;;;15.24;100.00
47738;BME280;33502;47.182;27.506;2023-06-10T00:50:38;99725.81;;;15.21;100.00
47738;BME280;33502;47.182;27.506;2023-06-10T00:53:06;99726.28;;;15.15;100.00
47738;BME280;33502;47.182;27.506;2023-06-10T00:55:33;99728.31;;;15.11;100.00
47738;BME280;33502;47.182;27.506;2023-06-10T00:57:59;99731.19;;;15.08;100.00
47738;BME280;33502;47.182;27.506;2023-06-10T01:00:25;99733.97;;;15.06;100.00
47738;BME280;33502;47.182;27.506;2023-06-10T01:02:51;99730.34;;;15.07;100.00
47738;BME280;33502;47.182;27.506;2023-06-10T01:05:18;99725.13;;;15.06;100.00
47738;BME280;33502;47.182;27.506;2023-06-10T01:10:20;99735.34;;;14.99;100.00
47738;BME280;33502;47.182;27.506;2023-06-10T01:12:59;99728.34;;;14.98;100.00
47738;BME280;33502;47.182;27.506;2023-06-10T01:15:32;99723.00;;;14.98;100.00
47738;BME280;33502;47.182;27.506;2023-06-10T01:18:02;99735.59;;;14.96;100.00
47738;BME280;33502;47.182;27.506;2023-06-10T01:20:30;99733.22;;;14.92;100.00
47738;BME280;33502;47.182;27.506;2023-06-10T01:23:00;99738.81;;;14.88;100.00
47738;BME280;33502;47.182;27.506;2023-06-10T01:25:26;99748.06;;;14.83;100.00
47738;BME280;33502;47.182;27.506;2023-06-10T01:30:24;99747.31;;;14.68;100.00
47738;BME280;33502;47.182;27.506;2023-06-10T01:32:55;99741.78;;;14.58;100.00
47738;BME280;33502;47.182;27.506;2023-06-10T01:35:21;99741.19;;;14.53;100.00
47738;BME280;33502;47.182;27.506;2023-06-10T01:37:49;99737.69;;;14.53;100.00
47738;BME280;33502;47.182;27.506;2023-06-10T01:40:17;99735.56;;;14.58;100.00
47738;BME280;33502;47.182;27.506;2023-06-10T01:42:43;99738.88;;;14.61;100.00
47738;BME280;33502;47.182;27.506;2023-06-10T01:45:09;99740.69;;;14.61;100.00
47738;BME280;33502;47.182;27.506;2023-06-10T01:47:34;99750.63;;;14.59;100.00
47738;BME280;33502;47.182;27.506;2023-06-10T01:50:00;99749.19;;;14.53;100.00
47738;BME280;33502;47.182;27.506;2023-06-10T01:52:27;99753.44;;;14.43;100.00
47738;BME280;33502;47.182;27.506;2023-06-10T01:54:53;99752.25;;;14.34;100.00
47738;BME280;33502;47.182;27.506;2023-06-10T01:57:19;99756.28;;;14.27;100.00
47738;BME280;33502;47.182;27.506;2023-06-10T01:59:44;99754.34;;;14.16;100.00
47738;BME280;33502;47.182;27.506;2023-06-10T02:02:11;99755.59;;;14.10;100.00
47738;BME280;33502;47.182;27.506;2023-06-10T02:04:37;99759.72;;;14.02;100.00
47738;BME280;33502;47.182;27.506;2023-06-10T02:07:03;99758.03;;;14.01;100.00
47738;BME280;33502;47.182;27.506;2023-06-10T02:09:31;99754.41;;;14.02;100.00
47738;BME280;33502;47.182;27.506;2023-06-10T02:11:57;99751.78;;;14.15;100.00
47738;BME280;33502;47.182;27.506;2023-06-10T02:14:23;99754.06;;;14.34;100.00
47738;BME280;33502;47.182;27.506;2023-06-10T02:16:49;99756.31;;;14.40;100.00
47738;BME280;33502;47.182;27.506;2023-06-10T02:19:16;99757.81;;;14.44;100.00
47738;BME280;33502;47.182;27.506;2023-06-10T02:21:42;99758.25;;;14.51;100.00
47738;BME280;33502;47.182;27.506;2023-06-10T02:24:09;99758.34;;;14.49;100.00
47738;BME280;33502;47.182;27.506;2023-06-10T02:26:35;99752.94;;;14.51;100.00
47738;BME280;33502;47.182;27.506;2023-06-10T02:29:01;99752.69;;;14.54;100.00
47738;BME280;33502;47.182;27.506;2023-06-10T02:31:27;99754.31;;;14.56;100.00
47738;BME280;33502;47.182;27.506;2023-06-10T02:33:54;99759.44;;;14.59;100.00
47738;BME280;33502;47.182;27.506;2023-06-10T02:36:20;99756.69;;;14.61;100.00
47738;BME280;33502;47.182;27.506;2023-06-10T02:38:47;99760.09;;;14.63;100.00
47738;BME280;33502;47.182;27.506;2023-06-10T02:41:12;99761.69;;;14.65;100.00
47738;BME280;33502;47.182;27.506;2023-06-10T02:43:39;99760.66;;;14.68;100.00
47738;BME280;33502;47.182;27.506;2023-06-10T02:46:05;99773.63;;;14.73;100.00
47738;BME280;33502;47.182;27.506;2023-06-10T02:48:31;99769.94;;;14.75;100.00
47738;BME280;33502;47.182;27.506;2023-06-10T02:50:57;99777.69;;;14.78;100.00
47738;BME280;33502;47.182;27.506;2023-06-10T02:53:29;99769.50;;;14.81;100.00
47738;BME280;33502;47.182;27.506;2023-06-10T02:56:02;99775.38;;;14.86;100.00
47738;BME280;33502;47.182;27.506;2023-06-10T02:58:27;99774.28;;;14.89;100.00
47738;BME280;33502;47.182;27.506;2023-06-10T03:00:54;99772.03;;;14.96;100.00
47738;BME280;33502;47.182;27.506;2023-06-10T03:03:20;99774.91;;;15.05;100.00
47738;BME280;33502;47.182;27.506;2023-06-10T03:06:03;99780.16;;;15.20;100.00
47738;BME280;33502;47.182;27.506;2023-06-10T03:08:29;99776.59;;;15.32;100.00
47738;BME280;33502;47.182;27.506;2023-06-10T03:10:57;99772.53;;;15.39;100.00
47738;BME280;33502;47.182;27.506;2023-06-10T03:13:23;99778.28;;;15.46;100.00
47738;BME280;33502;47.182;27.506;2023-06-10T03:15:49;99771.78;;;15.50;100.00
47738;BME280;33502;47.182;27.506;2023-06-10T03:18:18;99775.91;;;15.54;100.00
47738;BME280;33502;47.182;27.506;2023-06-10T03:20:45;99779.97;;;15.60;100.00
47738;BME280;33502;47.182;27.506;2023-06-10T03:23:11;99777.59;;;15.68;100.00
47738;BME280;33502;47.182;27.506;2023-06-10T03:25:39;99776.94;;;15.77;100.00
47738;BME280;33502;47.182;27.506;2023-06-10T03:28:05;99782.34;;;15.89;100.00
47738;BME280;33502;47.182;27.506;2023-06-10T03:30:32;99776.84;;;16.03;100.00
47738;BME280;33502;47.182;27.506;2023-06-10T03:32:58;99774.34;;;16.13;100.00
47738;BME280;33502;47.182;27.506;2023-06-10T03:35:26;99785.94;;;16.24;100.00
47738;BME280;33502;47.182;27.506;2023-06-10T03:37:52;99783.44;;;16.34;100.00
47738;BME280;33502;47.182;27.506;2023-06-10T03:40:17;99780.16;;;16.42;100.00
47738;BME280;33502;47.182;27.506;2023-06-10T03:42:45;99790.59;;;16.45;100.00
47738;BME280;33502;47.182;27.506;2023-06-10T03:45:13;99783.56;;;16.44;100.00
47738;BME280;33502;47.182;27.506;2023-06-10T03:47:39;99784.53;;;16.43;100.00
47738;BME280;33502;47.182;27.506;2023-06-10T03:50:09;99779.44;;;16.40;100.00
47738;BME280;33502;47.182;27.506;2023-06-10T03:52:35;99779.66;;;16.37;100.00
47738;BME280;33502;47.182;27.506;2023-06-10T03:55:01;99772.38;;;16.39;100.00
47738;BME280;33502;47.182;27.506;2023-06-10T03:57:27;99773.84;;;16.43;100.00
47738;BME280;33502;47.182;27.506;2023-06-10T03:59:53;99771.19;;;16.54;100.00
47738;BME280;33502;47.182;27.506;2023-06-10T04:02:19;99783.25;;;16.60;100.00
47738;BME280;33502;47.182;27.506;2023-06-10T04:04:44;99782.78;;;16.66;100.00
47738;BME280;33502;47.182;27.506;2023-06-10T04:07:10;99784.38;;;16.69;100.00
47738;BME280;33502;47.182;27.506;2023-06-10T04:09:36;99792.28;;;16.70;100.00
47738;BME280;33502;47.182;27.506;2023-06-10T04:12:02;99790.47;;;16.71;100.00
47738;BME280;33502;47.182;27.506;2023-06-10T04:14:29;99791.06;;;16.74;100.00
47738;BME280;33502;47.182;27.506;2023-06-10T04:16:55;99787.31;;;16.77;100.00
47738;BME280;33502;47.182;27.506;2023-06-10T04:19:22;99787.59;;;16.85;100.00
47738;BME280;33502;47.182;27.506;2023-06-10T04:21:47;99788.34;;;16.87;100.00
47738;BME280;33502;47.182;27.506;2023-06-10T04:24:13;99786.16;;;16.92;100.00
47738;BME280;33502;47.182;27.506;2023-06-10T04:26:38;99788.22;;;17.00;100.00
47738;BME280;33502;47.182;27.506;2023-06-10T04:29:04;99796.50;;;17.19;100.00
47738;BME280;33502;47.182;27.506;2023-06-10T04:31:30;99800.78;;;17.33;100.00
47738;BME280;33502;47.182;27.506;2023-06-10T04:33:58;99795.66;;;17.53;100.00
47738;BME280;33502;47.182;27.506;2023-06-10T04:36:24;99793.94;;;17.63;100.00
47738;BME280;33502;47.182;27.506;2023-06-10T04:38:50;99807.91;;;17.78;100.00
47738;BME280;33502;47.182;27.506;2023-06-10T04:41:18;99805.38;;;17.88;100.00
47738;BME280;33502;47.182;27.506;2023-06-10T04:43:44;99801.72;;;17.89;100.00
47738;BME280;33502;47.182;27.506;2023-06-10T04:46:10;99796.09;;;17.92;100.00
47738;BME280;33502;47.182;27.506;2023-06-10T04:48:36;99798.00;;;18.12;100.00
47738;BME280;33502;47.182;27.506;2023-06-10T04:51:03;99803.19;;;18.57;100.00
47738;BME280;33502;47.182;27.506;2023-06-10T04:53:28;99809.75;;;18.86;100.00
47738;BME280;33502;47.182;27.506;2023-06-10T04:55:54;99806.38;;;19.14;100.00
47738;BME280;33502;47.182;27.506;2023-06-10T04:58:19;99796.53;;;19.96;100.00
47738;BME280;33502;47.182;27.506;2023-06-10T05:00:45;99793.91;;;20.64;100.00
47738;BME280;33502;47.182;27.506;2023-06-10T05:03:11;99796.28;;;21.24;100.00
47738;BME280;33502;47.182;27.506;2023-06-10T05:05:36;99803.94;;;22.12;94.82
47738;BME280;33502;47.182;27.506;2023-06-10T05:08:02;99807.84;;;23.08;88.96
47738;BME280;33502;47.182;27.506;2023-06-10T05:10:27;99799.06;;;24.41;78.07
47738;BME280;33502;47.182;27.506;2023-06-10T05:12:57;99797.88;;;25.26;70.22
47738;BME280;33502;47.182;27.506;2023-06-10T05:15:23;99800.28;;;25.61;69.49
47738;BME280;33502;47.182;27.506;2023-06-10T05:17:48;99797.16;;;26.11;65.04
47738;BME280;33502;47.182;27.506;2023-06-10T05:20:14;99801.22;;;26.62;62.51
47738;BME280;33502;47.182;27.506;2023-06-10T05:22:40;99798.72;;;26.60;62.73
47738;BME280;33502;47.182;27.506;2023-06-10T05:25:06;99814.00;;;27.14;60.93
47738;BME280;33502;47.182;27.506;2023-06-10T05:27:32;99804.09;;;27.51;58.82
47738;BME280;33502;47.182;27.506;2023-06-10T05:29:57;99800.50;;;27.95;56.40
47738;BME280;33502;47.182;27.506;2023-06-10T05:32:23;99806.34;;;27.92;56.70
47738;BME280;33502;47.182;27.506;2023-06-10T05:34:49;99802.22;;;28.39;56.02
47738;BME280;33502;47.182;27.506;2023-06-10T05:37:14;99805.00;;;29.17;53.53
47738;BME280;33502;47.182;27.506;2023-06-10T05:39:40;99803.59;;;29.56;51.71
47738;BME280;33502;47.182;27.506;2023-06-10T05:42:06;99814.66;;;29.90;49.75
47738;BME280;33502;47.182;27.506;2023-06-10T05:44:32;99814.59;;;29.76;49.31
47738;BME280;33502;47.182;27.506;2023-06-10T05:46:58;99810.34;;;30.15;48.62
47738;BME280;33502;47.182;27.506;2023-06-10T05:49:24;99810.78;;;30.25;49.76
47738;BME280;33502;47.182;27.506;2023-06-10T05:51:49;99807.69;;;30.82;46.54
47738;BME280;33502;47.182;27.506;2023-06-10T05:54:15;99807.44;;;31.50;46.17
47738;BME280;33502;47.182;27.506;2023-06-10T05:56:40;99805.50;;;31.64;44.71
47738;BME280;33502;47.182;27.506;2023-06-10T05:59:06;99811.88;;;31.31;45.41
47738;BME280;33502;47.182;27.506;2023-06-10T06:01:32;99811.47;;;31.34;44.94
47738;BME280;33502;47.182;27.506;2023-06-10T06:03:57;99799.81;;;31.72;45.26
47738;BME280;33502;47.182;27.506;2023-06-10T06:06:23;99806.13;;;31.73;44.21
47738;BME280;33502;47.182;27.506;2023-06-10T06:08:49;99812.88;;;32.15;43.93
47738;BME280;33502;47.182;27.506;2023-06-10T06:11:14;99806.97;;;32.18;42.99
47738;BME280;33502;47.182;27.506;2023-06-10T06:13:40;99805.78;;;32.39;42.46
47738;BME280;33502;47.182;27.506;2023-06-10T06:16:07;99797.81;;;32.70;41.95
47738;BME280;33502;47.182;27.506;2023-06-10T06:18:33;99807.09;;;30.73;44.98
47738;BME280;33502;47.182;27.506;2023-06-10T06:20:59;99803.19;;;30.14;46.52
47738;BME280;33502;47.182;27.506;2023-06-10T06:23:25;99797.53;;;30.22;47.79
47738;BME280;33502;47.182;27.506;2023-06-10T06:25:50;99800.53;;;29.73;48.15
47738;BME280;33502;47.182;27.506;2023-06-10T06:28:17;99800.13;;;30.51;45.91
47738;BME280;33502;47.182;27.506;2023-06-10T06:30:44;99803.09;;;31.09;45.45
47738;BME280;33502;47.182;27.506;2023-06-10T06:33:10;99802.44;;;31.92;44.46
47738;BME280;33502;47.182;27.506;2023-06-10T06:35:35;99794.44;;;30.45;45.74
47738;BME280;33502;47.182;27.506;2023-06-10T06:38:03;99803.28;;;30.41;46.66
47738;BME280;33502;47.182;27.506;2023-06-10T06:40:29;99802.91;;;30.84;46.09
47738;BME280;33502;47.182;27.506;2023-06-10T06:42:55;99798.69;;;31.15;45.07
47738;BME280;33502;47.182;27.506;2023-06-10T06:45:39;99796.53;;;31.37;44.08
47738;BME280;33502;47.182;27.506;2023-06-10T06:48:05;99788.47;;;31.62;44.61
47738;BME280;33502;47.182;27.506;2023-06-10T06:50:30;99785.94;;;32.44;42.85
47738;BME280;33502;47.182;27.506;2023-06-10T06:52:56;99791.38;;;32.19;42.81
47738;BME280;33502;47.182;27.506;2023-06-10T06:55:22;99787.44;;;31.56;45.04
47738;BME280;33502;47.182;27.506;2023-06-10T06:57:47;99793.84;;;31.17;43.47
47738;BME280;33502;47.182;27.506;2023-06-10T07:00:13;99794.53;;;31.71;44.22
47738;BME280;33502;47.182;27.506;2023-06-10T07:02:39;99785.44;;;32.61;42.20
47738;BME280;33502;47.182;27.506;2023-06-10T07:05:05;99792.34;;;32.63;41.14
47738;BME280;33502;47.182;27.506;2023-06-10T07:07:31;99789.06;;;32.48;40.85
47738;BME280;33502;47.182;27.506;2023-06-10T07:09:57;99789.97;;;32.73;40.25
47738;BME280;33502;47.182;27.506;2023-06-10T07:12:22;99784.28;;;33.19;39.45
47738;BME280;33502;47.182;27.506;2023-06-10T07:14:49;99783.75;;;33.28;39.29
47738;BME280;33502;47.182;27.506;2023-06-10T07:17:15;99782.50;;;33.06;38.90
47738;BME280;33502;47.182;27.506;2023-06-10T07:19:41;99777.34;;;33.16;39.83
47738;BME280;33502;47.182;27.506;2023-06-10T07:22:06;99786.81;;;33.76;39.16
47738;BME280;33502;47.182;27.506;2023-06-10T07:24:32;99787.19;;;35.05;36.56
47738;BME280;33502;47.182;27.506;2023-06-10T07:26:58;99787.06;;;35.00;36.04
47738;BME280;33502;47.182;27.506;2023-06-10T07:29:23;99787.44;;;34.80;35.56
47738;BME280;33502;47.182;27.506;2023-06-10T07:31:49;99783.97;;;34.85;37.21
47738;BME280;33502;47.182;27.506;2023-06-10T07:34:14;99787.72;;;35.66;35.62
47738;BME280;33502;47.182;27.506;2023-06-10T07:36:40;99783.50;;;35.87;34.53
47738;BME280;33502;47.182;27.506;2023-06-10T07:39:06;99777.44;;;35.74;36.52
47738;BME280;33502;47.182;27.506;2023-06-10T07:41:32;99775.03;;;35.65;34.06
47738;BME280;33502;47.182;27.506;2023-06-10T07:43:58;99777.25;;;35.40;36.26
47738;BME280;33502;47.182;27.506;2023-06-10T07:46:23;99770.94;;;36.09;34.29
47738;BME280;33502;47.182;27.506;2023-06-10T07:48:51;99778.03;;;36.04;33.85
47738;BME280;33502;47.182;27.506;2023-06-10T07:51:17;99778.16;;;35.57;33.91
47738;BME280;33502;47.182;27.506;2023-06-10T07:53:42;99773.53;;;35.98;33.89
47738;BME280;33502;47.182;27.506;2023-06-10T07:56:08;99770.78;;;36.61;32.38
47738;BME280;33502;47.182;27.506;2023-06-10T07:58:34;99771.03;;;36.93;31.16
47738;BME280;33502;47.182;27.506;2023-06-10T08:00:59;99778.31;;;36.99;30.99
47738;BME280;33502;47.182;27.506;2023-06-10T08:03:25;99772.63;;;36.89;31.87
47738;BME280;33502;47.182;27.506;2023-06-10T08:05:50;99781.09;;;36.99;30.59
47738;BME280;33502;47.182;27.506;2023-06-10T08:08:16;99771.25;;;37.26;31.29
47738;BME280;33502;47.182;27.506;2023-06-10T08:10:42;99767.38;;;37.93;29.54
47738;BME280;33502;47.182;27.506;2023-06-10T08:13:08;99768.31;;;37.54;28.51
47738;BME280;33502;47.182;27.506;2023-06-10T08:15:33;99768.19;;;37.44;29.46
47738;BME280;33502;47.182;27.506;2023-06-10T08:17:59;99765.47;;;37.27;29.24
47738;BME280;33502;47.182;27.506;2023-06-10T08:20:25;99758.28;;;37.26;29.21
47738;BME280;33502;47.182;27.506;2023-06-10T08:22:50;99765.69;;;37.20;29.08
47738;BME280;33502;47.182;27.506;2023-06-10T08:25:16;99764.78;;;37.59;28.40
47738;BME280;33502;47.182;27.506;2023-06-10T08:27:41;99765.97;;;37.24;28.92
47738;BME280;33502;47.182;27.506;2023-06-10T08:30:07;99763.06;;;37.75;28.33
47738;BME280;33502;47.182;27.506;2023-06-10T08:32:33;99756.06;;;37.89;28.29
47738;BME280;33502;47.182;27.506;2023-06-10T08:34:59;99758.91;;;36.94;28.41
47738;BME280;33502;47.182;27.506;2023-06-10T08:37:25;99743.22;;;36.44;28.58
47738;BME280;33502;47.182;27.506;2023-06-10T08:39:51;99744.91;;;36.16;29.84
47738;BME280;33502;47.182;27.506;2023-06-10T08:42:23;99745.44;;;36.30;28.69
47738;BME280;33502;47.182;27.506;2023-06-10T08:44:54;99752.16;;;36.05;29.00
47738;BME280;33502;47.182;27.506;2023-06-10T08:47:24;99748.38;;;36.57;28.69
47738;BME280;33502;47.182;27.506;2023-06-10T08:49:51;99747.19;;;36.36;29.19
47738;BME280;33502;47.182;27.506;2023-06-10T08:52:19;99747.03;;;35.68;29.14
47738;BME280;33502;47.182;27.506;2023-06-10T08:54:56;99746.00;;;35.86;31.36
47738;BME280;33502;47.182;27.506;2023-06-10T08:57:22;99737.03;;;36.54;29.06
47738;BME280;33502;47.182;27.506;2023-06-10T08:59:48;99740.38;;;36.56;28.81
47738;BME280;33502;47.182;27.506;2023-06-10T09:02:14;99741.63;;;36.82;27.99
47738;BME280;33502;47.182;27.506;2023-06-10T09:04:43;99737.03;;;36.54;29.31
47738;BME280;33502;47.182;27.506;2023-06-10T09:07:10;99737.03;;;36.54;28.15
47738;BME280;33502;47.182;27.506;2023-06-10T09:09:36;99732.28;;;36.83;28.18
47738;BME280;33502;47.182;27.506;2023-06-10T09:12:02;99733.84;;;36.62;28.75
47738;BME280;33502;47.182;27.506;2023-06-10T09:14:28;99722.75;;;36.11;28.55
47738;BME280;33502;47.182;27.506;2023-06-10T09:16:54;99728.88;;;35.84;29.76
47738;BME280;33502;47.182;27.506;2023-06-10T09:19:22;99719.56;;;36.48;28.88
47738;BME280;33502;47.182;27.506;2023-06-10T09:21:49;99715.44;;;37.01;28.92
47738;BME280;33502;47.182;27.506;2023-06-10T09:24:15;99716.41;;;36.11;29.21
47738;BME280;33502;47.182;27.506;2023-06-10T09:26:41;99719.31;;;35.46;29.32
47738;BME280;33502;47.182;27.506;2023-06-10T09:29:08;99726.53;;;35.36;29.24
47738;BME280;33502;47.182;27.506;2023-06-10T09:31:35;99716.72;;;35.40;29.71
47738;BME280;33502;47.182;27.506;2023-06-10T09:34:11;99715.25;;;35.49;28.63
47738;BME280;33502;47.182;27.506;2023-06-10T09:36:37;99709.78;;;35.25;28.79
47738;BME280;33502;47.182;27.506;2023-06-10T09:39:03;99708.38;;;34.76;31.98
47738;BME280;33502;47.182;27.506;2023-06-10T09:41:35;99698.94;;;34.06;32.16
47738;BME280;33502;47.182;27.506;2023-06-10T09:44:01;99697.09;;;33.58;31.63
47738;BME280;33502;47.182;27.506;2023-06-10T09:46:31;99695.78;;;33.05;33.72
47738;BME280;33502;47.182;27.506;2023-06-10T09:48:58;99690.84;;;32.95;34.48
47738;BME280;33502;47.182;27.506;2023-06-10T09:51:23;99694.47;;;33.14;31.37
47738;BME280;33502;47.182;27.506;2023-06-10T09:53:53;99696.19;;;33.45;29.35
47738;BME280;33502;47.182;27.506;2023-06-10T09:56:18;99692.84;;;34.04;31.92
47738;BME280;33502;47.182;27.506;2023-06-10T09:58:45;99691.88;;;33.98;30.27
47738;BME280;33502;47.182;27.506;2023-06-10T10:01:12;99693.16;;;34.26;29.53
47738;BME280;33502;47.182;27.506;2023-06-10T10:06:11;99697.13;;;34.30;30.30
47738;BME280;33502;47.182;27.506;2023-06-10T10:08:36;99700.78;;;34.24;29.98
47738;BME280;33502;47.182;27.506;2023-06-10T10:11:02;99688.03;;;34.41;29.31
47738;BME280;33502;47.182;27.506;2023-06-10T10:13:28;99685.94;;;33.71;29.92
47738;BME280;33502;47.182;27.506;2023-06-10T10:15:55;99692.16;;;32.42;30.46
47738;BME280;33502;47.182;27.506;2023-06-10T10:18:22;99683.47;;;31.95;31.80
47738;BME280;33502;47.182;27.506;2023-06-10T10:20:54;99687.09;;;31.37;33.01
47738;BME280;33502;47.182;27.506;2023-06-10T10:23:32;99690.19;;;30.82;32.60
47738;BME280;33502;47.182;27.506;2023-06-10T10:26:00;99683.69;;;30.16;35.95
47738;BME280;33502;47.182;27.506;2023-06-10T10:28:29;99687.19;;;29.77;35.90
47738;BME280;33502;47.182;27.506;2023-06-10T10:31:03;99691.56;;;29.64;37.15
47738;BME280;33502;47.182;27.506;2023-06-10T10:33:40;99685.69;;;29.67;36.87
47738;BME280;33502;47.182;27.506;2023-06-10T10:36:07;99679.91;;;29.91;38.05
47738;BME280;33502;47.182;27.506;2023-06-10T10:38:33;99679.78;;;31.24;35.44
47738;BME280;33502;47.182;27.506;2023-06-10T10:40:59;99676.94;;;32.46;35.12
47738;BME280;33502;47.182;27.506;2023-06-10T10:43:27;99672.53;;;33.14;31.21
47738;BME280;33502;47.182;27.506;2023-06-10T10:46:00;99676.53;;;33.30;30.41
47738;BME280;33502;47.182;27.506;2023-06-10T10:48:26;99663.09;;;34.01;34.75
47738;BME280;33502;47.182;27.506;2023-06-10T10:50:58;99666.53;;;34.62;30.85
47738;BME280;33502;47.182;27.506;2023-06-10T10:53:24;99662.88;;;35.32;32.94
47738;BME280;33502;47.182;27.506;2023-06-10T10:56:04;99657.84;;;35.41;29.24
47738;BME280;33502;47.182;27.506;2023-06-10T10:58:30;99665.22;;;34.52;29.85
47738;BME280;33502;47.182;27.506;2023-06-10T11:00:57;99661.31;;;34.06;30.66
47738;BME280;33502;47.182;27.506;2023-06-10T11:03:24;99660.59;;;32.39;32.30
47738;BME280;33502;47.182;27.506;2023-06-10T11:05:52;99661.63;;;32.38;33.52
47738;BME280;33502;47.182;27.506;2023-06-10T11:10:53;99657.59;;;33.89;32.69
47738;BME280;33502;47.182;27.506;2023-06-10T11:13:19;99661.41;;;34.30;31.77
47738;BME280;33502;47.182;27.506;2023-06-10T11:15:46;99649.91;;;33.79;33.89
47738;BME280;33502;47.182;27.506;2023-06-10T11:18:13;99655.19;;;33.62;34.04
47738;BME280;33502;47.182;27.506;2023-06-10T11:25:51;99649.78;;;31.63;35.70
47738;BME280;33502;47.182;27.506;2023-06-10T11:28:17;99658.81;;;31.05;36.04
47738;BME280;33502;47.182;27.506;2023-06-10T11:30:43;99649.84;;;30.91;37.64
47738;BME280;33502;47.182;27.506;2023-06-10T11:33:09;99647.69;;;31.90;37.08
47738;BME280;33502;47.182;27.506;2023-06-10T11:35:34;99639.78;;;32.57;34.40
47738;BME280;33502;47.182;27.506;2023-06-10T11:38:00;99640.19;;;33.34;35.73
47738;BME280;33502;47.182;27.506;2023-06-10T11:40:26;99641.25;;;34.06;34.14
47738;BME280;33502;47.182;27.506;2023-06-10T11:42:55;99633.06;;;34.41;32.14
47738;BME280;33502;47.182;27.506;2023-06-10T11:45:21;99631.38;;;34.64;30.63
47738;BME280;33502;47.182;27.506;2023-06-10T11:47:59;99622.91;;;34.65;29.38
47738;BME280;33502;47.182;27.506;2023-06-10T11:50:42;99618.03;;;34.44;32.56
47738;BME280;33502;47.182;27.506;2023-06-10T11:53:08;99617.41;;;34.65;30.52
47738;BME280;33502;47.182;27.506;2023-06-10T11:55:46;99617.00;;;35.09;29.23
47738;BME280;33502;47.182;27.506;2023-06-10T11:58:16;99612.63;;;34.37;29.81
47738;BME280;33502;47.182;27.506;2023-06-10T12:00:45;99605.66;;;33.87;31.39
47738;BME280;33502;47.182;27.506;2023-06-10T12:03:11;99604.53;;;34.42;31.30
47738;BME280;33502;47.182;27.506;2023-06-10T12:05:37;99598.16;;;35.29;32.33
47738;BME280;33502;47.182;27.506;2023-06-10T12:08:11;99608.28;;;35.41;28.45
47738;BME280;33502;47.182;27.506;2023-06-10T12:10:40;99613.09;;;34.93;29.90
47738;BME280;33502;47.182;27.506;2023-06-10T12:13:08;99599.75;;;33.72;31.76
47738;BME280;33502;47.182;27.506;2023-06-10T12:15:34;99605.28;;;32.49;32.46
47738;BME280;33502;47.182;27.506;2023-06-10T12:17:59;99604.00;;;32.08;34.40
47738;BME280;33502;47.182;27.506;2023-06-10T12:20:29;99602.81;;;31.91;32.58
47738;BME280;33502;47.182;27.506;2023-06-10T12:22:54;99597.22;;;33.10;32.57
47738;BME280;33502;47.182;27.506;2023-06-10T12:25:29;99589.72;;;32.87;32.31
47738;BME280;33502;47.182;27.506;2023-06-10T12:27:56;99592.44;;;32.25;32.95
47738;BME280;33502;47.182;27.506;2023-06-10T12:30:22;99590.41;;;31.88;33.75
47738;BME280;33502;47.182;27.506;2023-06-10T12:32:48;99586.66;;;31.57;36.18
47738;BME280;33502;47.182;27.506;2023-06-10T12:35:16;99588.59;;;31.05;36.45
47738;BME280;33502;47.182;27.506;2023-06-10T12:37:42;99593.16;;;30.59;35.76
47738;BME280;33502;47.182;27.506;2023-06-10T12:40:25;99582.44;;;30.24;35.28
47738;BME280;33502;47.182;27.506;2023-06-10T12:42:50;99589.84;;;30.04;36.25
47738;BME280;33502;47.182;27.506;2023-06-10T12:45:16;99579.09;;;30.49;37.17
47738;BME280;33502;47.182;27.506;2023-06-10T12:47:51;99574.56;;;31.97;34.87
47738;BME280;33502;47.182;27.506;2023-06-10T12:50:17;99573.78;;;32.95;31.29
47738;BME280;33502;47.182;27.506;2023-06-10T12:52:42;99565.66;;;33.49;29.51
47738;BME280;33502;47.182;27.506;2023-06-10T12:55:08;99563.16;;;33.48;28.60
47738;BME280;33502;47.182;27.506;2023-06-10T12:57:33;99556.44;;;32.83;31.43
47738;BME280;33502;47.182;27.506;2023-06-10T12:59:59;99559.63;;;32.62;29.39